Time;durP1;ratioP1;P1;durP2;ratioP2;P2;SDS_P1;SDS_P2;PMS_P1;PMS_P2;Temp;Humidity;BMP_temperature;BMP_pressure;BME280_temperature;BME280_humidity;BME280_pressure;Samples;Min_cycle;Max_cycle;Signal;HPM_P1;HPM_P2
2023/02/16 00:00:06;;;;;;;27.63;17.87;;;0.30;99.90;;;;;;5035194;28;20256;-86
2023/02/16 00:02:31;;;;;;;41.13;18.03;;;0.20;99.90;;;;;;5032687;28;20570;-87
2023/02/16 00:04:57;;;;;;;42.83;19.30;;;0.10;99.90;;;;;;5038979;28;20616;-85
2023/02/16 00:07:22;;;;;;;28.03;17.10;;;0.20;99.90;;;;;;5039475;28;20184;-86
2023/02/16 00:09:48;;;;;;;33.53;18.07;;;0.20;99.90;;;;;;5040727;28;20821;-87
2023/02/16 00:15:19;;;;;;;34.73;18.77;;;0.30;99.90;;;;;;5031715;28;20235;-86
2023/02/16 00:17:45;;;;;;;26.73;18.00;;;0.40;99.90;;;;;;5025757;28;20208;-87
2023/02/16 00:20:15;;;;;;;32.57;18.07;;;0.40;99.90;;;;;;5040298;28;20276;-88
2023/02/16 00:22:41;;;;;;;30.13;18.03;;;0.60;99.90;;;;;;5039137;28;20204;-87
2023/02/16 00:25:07;;;;;;;25.90;18.97;;;0.50;99.90;;;;;;5040545;28;20626;-87
2023/02/16 00:27:33;;;;;;;34.00;19.33;;;0.60;99.90;;;;;;5039675;28;20184;-87
2023/02/16 00:29:59;;;;;;;33.30;19.17;;;0.60;99.90;;;;;;5037957;28;20224;-86
2023/02/16 00:32:25;;;;;;;32.90;19.07;;;0.40;99.90;;;;;;5021360;28;20214;-88
2023/02/16 00:34:51;;;;;;;33.97;18.53;;;0.50;99.90;;;;;;5019636;28;20213;-86
2023/02/16 00:37:16;;;;;;;33.67;19.53;;;0.50;99.90;;;;;;5019091;28;20228;-85
2023/02/16 00:39:43;;;;;;;21.97;18.90;;;0.60;99.90;;;;;;5022369;28;20189;-87
2023/02/16 00:42:22;;;;;;;44.30;19.47;;;0.60;99.90;;;;;;5025680;28;20208;-89
2023/02/16 00:44:51;;;;;;;30.37;18.63;;;0.60;99.90;;;;;;5018221;28;20200;-85
2023/02/16 00:47:24;;;;;;;39.00;19.10;;;0.40;99.90;;;;;;5017417;28;20190;-87
2023/02/16 00:49:52;;;;;;;35.33;19.03;;;0.40;99.90;;;;;;5018379;28;20177;-86
2023/02/16 00:52:31;;;;;;;36.63;18.87;;;0.40;99.90;;;;;;5032721;28;20545;-86
2023/02/16 00:54:57;;;;;;;31.50;18.03;;;0.40;99.90;;;;;;5035796;28;20185;-86
2023/02/16 00:57:24;;;;;;;25.00;18.23;;;0.60;99.90;;;;;;5027972;28;20212;-85
2023/02/16 01:00:05;;;;;;;51.10;20.63;;;0.50;99.90;;;;;;5016665;28;20170;-86
2023/02/16 01:02:30;;;;;;;47.00;19.67;;;0.40;99.90;;;;;;5016052;28;20232;-88
2023/02/16 01:04:56;;;;;;;41.70;19.93;;;0.30;99.90;;;;;;5018260;28;20173;-86
2023/02/16 01:13:13;;;;;;;81.97;23.03;;;0.20;99.90;;;;;;4941069;28;20308;-85
2023/02/16 01:15:39;;;;;;;42.40;22.20;;;0.10;99.90;;;;;;4995925;28;20198;-86
2023/02/16 01:18:05;;;;;;;31.10;20.00;;;0.20;99.90;;;;;;5023678;28;20215;-87
2023/02/16 01:20:31;;;;;;;56.37;22.00;;;0.20;99.90;;;;;;5027441;28;20177;-87
2023/02/16 01:22:57;;;;;;;69.87;22.77;;;0.30;99.90;;;;;;5044531;28;20195;-87
2023/02/16 01:25:23;;;;;;;33.57;20.63;;;0.30;99.90;;;;;;5043248;28;20181;-84
2023/02/16 01:27:49;;;;;;;70.03;22.80;;;0.30;99.90;;;;;;5044065;28;20660;-87
2023/02/16 01:30:24;;;;;;;44.47;22.63;;;0.30;99.90;;;;;;5043004;28;20241;-87
2023/02/16 01:32:50;;;;;;;88.43;24.00;;;0.20;99.90;;;;;;5041168;28;20210;-86
2023/02/16 01:35:27;;;;;;;91.13;24.83;;;0.20;99.90;;;;;;5043577;28;20205;-87
2023/02/16 01:37:53;;;;;;;64.87;21.80;;;0.10;99.90;;;;;;5044240;28;20201;-88
2023/02/16 01:40:39;;;;;;;51.70;21.97;;;0.10;99.90;;;;;;5043983;28;20176;-86
2023/02/16 01:43:50;;;;;;;36.17;21.87;;;0.20;99.90;;;;;;5035366;28;20189;-86
2023/02/16 01:46:24;;;;;;;91.93;24.63;;;0.20;99.90;;;;;;5025380;28;20190;-87
2023/02/16 01:48:49;;;;;;;64.27;24.60;;;0.20;99.90;;;;;;5022358;28;20181;-88
2023/02/16 01:51:26;;;;;;;55.53;23.80;;;0.10;99.90;;;;;;5032119;28;20177;-86
2023/02/16 01:54:12;;;;;;;101.10;25.40;;;0.10;99.90;;;;;;5043116;28;20234;-86
2023/02/16 01:56:47;;;;;;;84.60;24.57;;;0.10;99.90;;;;;;5049112;28;20381;-89
2023/02/16 01:59:37;;;;;;;73.47;24.03;;;0.00;99.90;;;;;;5037410;28;20192;-90
2023/02/16 02:02:04;;;;;;;70.73;23.73;;;0.00;99.90;;;;;;5034817;28;20159;-86
2023/02/16 02:07:40;;;;;;;52.23;23.50;;;0.00;99.90;;;;;;5021441;28;20197;-85
2023/02/16 02:10:34;;;;;;;67.73;23.70;;;0.00;99.90;;;;;;5026206;28;20235;-87
2023/02/16 02:13:21;;;;;;;72.40;24.90;;;0.10;99.90;;;;;;5040116;28;20208;-87
2023/02/16 02:15:47;;;;;;;78.47;25.00;;;0.10;99.90;;;;;;5041203;28;20200;-85
2023/02/16 02:18:13;;;;;;;56.13;25.00;;;0.00;99.90;;;;;;5041766;28;20208;-85
2023/02/16 02:24:17;;;;;;;47.67;23.70;;;-0.10;99.90;;;;;;5039481;28;20262;-88
2023/02/16 02:27:03;;;;;;;42.33;22.87;;;-0.10;99.90;;;;;;5038931;28;20593;-86
2023/02/16 02:29:50;;;;;;;39.97;23.00;;;-0.10;99.90;;;;;;5041120;28;20242;-87
2023/02/16 02:32:50;;;;;;;47.30;24.60;;;-0.10;99.90;;;;;;5042254;28;20288;-86
2023/02/16 02:35:54;;;;;;;35.90;23.90;;;0.00;99.90;;;;;;5040439;28;20180;-87
2023/02/16 02:38:44;;;;;;;47.13;22.23;;;0.00;99.90;;;;;;5017151;28;20282;-87
2023/02/16 02:44:21;;;;;;;41.80;21.97;;;0.00;99.90;;;;;;5038874;28;20175;-87
2023/02/16 02:46:47;;;;;;;39.97;22.47;;;-0.20;99.90;;;;;;5037222;28;20188;-87
2023/02/16 02:49:14;;;;;;;51.97;22.83;;;-0.10;99.90;;;;;;5036636;28;20181;-84
2023/02/16 02:51:39;;;;;;;31.93;20.90;;;-0.10;99.90;;;;;;5039014;28;20193;-86
2023/02/16 03:02:57;;;;;;;38.87;21.33;;;0.00;99.90;;;;;;5021055;28;20217;-87
2023/02/16 03:05:28;;;;;;;45.50;21.33;;;0.00;99.90;;;;;;5019687;28;20178;-86
2023/02/16 03:08:05;;;;;;;36.17;21.17;;;0.10;99.90;;;;;;5035669;28;20189;-86
2023/02/16 03:14:07;;;;;;;23.00;19.20;;;0.20;99.90;;;;;;5039658;28;20250;-85
2023/02/16 03:16:38;;;;;;;33.90;20.37;;;0.40;99.90;;;;;;5019611;28;20192;-86
2023/02/16 03:30:16;;;;;;;26.67;18.43;;;0.00;99.90;;;;;;5038515;28;20254;-85
2023/02/16 03:32:43;;;;;;;21.20;17.10;;;0.10;99.90;;;;;;5023595;28;20263;-87
2023/02/16 03:35:11;;;;;;;24.07;18.27;;;0.20;99.90;;;;;;5018523;28;20185;-87
2023/02/16 03:37:38;;;;;;;26.00;18.40;;;0.30;99.90;;;;;;5035969;28;20193;-84
2023/02/16 03:42:51;;;;;;;19.43;17.30;;;0.30;99.90;;;;;;5040691;28;20199;-87
2023/02/16 03:45:19;;;;;;;26.43;19.17;;;0.30;99.90;;;;;;5038981;28;20200;-88
2023/02/16 03:47:44;;;;;;;27.00;18.40;;;0.20;99.90;;;;;;5040191;28;20240;-87
2023/02/16 03:50:10;;;;;;;20.07;17.33;;;0.10;99.90;;;;;;5030591;28;20288;-87
2023/02/16 03:52:36;;;;;;;36.03;18.20;;;0.10;99.90;;;;;;5037197;28;20312;-87
2023/02/16 03:55:01;;;;;;;24.07;18.37;;;-0.10;99.90;;;;;;5052544;28;20173;-87
2023/02/16 03:57:27;;;;;;;25.30;18.90;;;-0.20;99.90;;;;;;5052351;28;20216;-88
2023/02/16 03:59:53;;;;;;;26.80;18.27;;;-0.10;99.90;;;;;;5052695;28;20169;-87
2023/02/16 04:02:19;;;;;;;21.83;17.93;;;0.10;99.90;;;;;;5048123;28;20212;-86
2023/02/16 04:04:45;;;;;;;28.43;17.23;;;0.10;99.90;;;;;;5040142;28;20613;-88
2023/02/16 04:07:10;;;;;;;21.43;16.73;;;0.20;99.90;;;;;;5040792;28;20259;-86
2023/02/16 04:09:36;;;;;;;26.63;17.57;;;0.30;99.90;;;;;;5040970;28;20248;-85
2023/02/16 04:14:45;;;;;;;18.83;16.70;;;0.00;99.90;;;;;;5039925;28;20233;-86
2023/02/16 04:17:11;;;;;;;26.03;16.97;;;-0.10;99.90;;;;;;5040439;28;20224;-87
2023/02/16 04:19:37;;;;;;;27.77;18.03;;;0.00;99.90;;;;;;5037493;28;20169;-86
2023/02/16 04:22:02;;;;;;;25.57;16.93;;;0.20;99.90;;;;;;5021141;28;20185;-85
2023/02/16 04:24:28;;;;;;;23.37;18.03;;;0.00;99.90;;;;;;5020638;28;20236;-86
2023/02/16 04:26:54;;;;;;;24.20;18.43;;;0.10;99.90;;;;;;5019401;28;20671;-88
2023/02/16 04:29:20;;;;;;;25.50;17.90;;;-0.10;99.90;;;;;;5019753;28;20277;-87
2023/02/16 04:31:46;;;;;;;21.87;16.50;;;0.00;99.90;;;;;;5019769;28;20184;-86
2023/02/16 04:34:11;;;;;;;23.50;16.63;;;0.10;99.90;;;;;;5024883;28;20213;-86
2023/02/16 04:36:37;;;;;;;28.87;17.60;;;0.00;99.90;;;;;;5038118;28;20184;-87
2023/02/16 04:39:04;;;;;;;29.17;18.70;;;0.10;99.90;;;;;;5037986;28;20170;-86
2023/02/16 04:41:30;;;;;;;28.23;18.10;;;0.10;99.90;;;;;;5036490;28;20373;-87
2023/02/16 04:43:55;;;;;;;26.20;18.97;;;0.00;99.90;;;;;;5036106;28;20570;-86
2023/02/16 04:46:21;;;;;;;25.90;19.00;;;0.00;99.90;;;;;;5034081;28;20185;-87
2023/02/16 04:48:47;;;;;;;23.60;19.33;;;0.00;99.90;;;;;;5033927;28;20208;-85
2023/02/16 04:51:12;;;;;;;20.37;17.60;;;-0.10;99.90;;;;;;5035459;28;20208;-89
2023/02/16 04:53:38;;;;;;;20.00;17.07;;;0.00;99.90;;;;;;5025760;28;20212;-87
2023/02/16 04:56:04;;;;;;;24.67;18.03;;;0.20;99.90;;;;;;5026180;28;20173;-85
2023/02/16 04:58:29;;;;;;;26.03;18.20;;;0.10;99.90;;;;;;5040446;28;20209;-87
2023/02/16 05:00:55;;;;;;;21.00;17.80;;;0.00;99.90;;;;;;5041521;28;20173;-87
2023/02/16 05:03:21;;;;;;;20.53;16.90;;;0.00;99.90;;;;;;5022888;28;20213;-86
2023/02/16 05:05:46;;;;;;;18.97;16.97;;;0.10;99.90;;;;;;5020607;28;20184;-86
2023/02/16 05:08:12;;;;;;;18.33;15.57;;;0.20;99.90;;;;;;5020568;28;20185;-87
2023/02/16 05:10:37;;;;;;;20.23;16.30;;;0.10;99.90;;;;;;5020038;28;20188;-86
2023/02/16 05:15:48;;;;;;;21.80;17.43;;;0.00;99.90;;;;;;5032262;28;20207;-86
2023/02/16 05:18:13;;;;;;;25.23;18.10;;;-0.10;99.90;;;;;;5038461;28;20205;-85
2023/02/16 05:23:23;;;;;;;26.33;17.37;;;-0.20;99.90;;;;;;5026725;28;20333;-87
2023/02/16 05:25:49;;;;;;;27.70;18.33;;;-0.20;99.90;;;;;;5057088;28;20177;-85
2023/02/16 05:28:15;;;;;;;25.77;17.17;;;-0.20;99.90;;;;;;5038693;28;20675;-88
2023/02/16 05:30:40;;;;;;;24.43;18.10;;;-0.20;99.90;;;;;;5037959;28;20188;-87
2023/02/16 05:33:06;;;;;;;33.80;18.37;;;-0.20;99.90;;;;;;5027614;28;20214;-86
2023/02/16 05:35:33;;;;;;;34.37;19.57;;;-0.30;99.90;;;;;;5015719;28;21657;-88
2023/02/16 05:37:58;;;;;;;29.30;18.50;;;-0.30;99.90;;;;;;5024942;28;20213;-88
2023/02/16 05:40:24;;;;;;;51.17;20.43;;;-0.40;99.90;;;;;;5028537;28;20199;-88
2023/02/16 05:42:53;;;;;;;30.10;19.23;;;-0.40;99.90;;;;;;5023338;28;20213;-86
2023/02/16 05:45:19;;;;;;;39.93;21.23;;;-0.50;99.90;;;;;;5026661;28;20188;-85
2023/02/16 05:47:45;;;;;;;26.53;19.47;;;-0.40;99.90;;;;;;5029007;28;20258;-88
2023/02/16 05:50:11;;;;;;;25.83;18.90;;;-0.30;99.90;;;;;;5028364;28;20193;-84
2023/02/16 05:52:36;;;;;;;41.00;20.77;;;-0.30;99.90;;;;;;5030251;28;20213;-87
2023/02/16 05:55:03;;;;;;;42.90;20.47;;;-0.30;99.90;;;;;;5031874;28;20227;-87
2023/02/16 05:57:29;;;;;;;41.07;19.73;;;-0.40;99.90;;;;;;5026786;28;20593;-86
2023/02/16 05:59:54;;;;;;;44.20;21.70;;;-0.40;99.90;;;;;;5033847;28;20180;-86
2023/02/16 06:02:20;;;;;;;61.03;23.77;;;-0.50;99.90;;;;;;5034034;28;20209;-87
2023/02/16 06:04:47;;;;;;;50.17;23.27;;;-0.50;99.90;;;;;;5032361;28;20188;-88
2023/02/16 06:07:12;;;;;;;33.17;20.60;;;-0.50;99.90;;;;;;5035390;28;20215;-88
2023/02/16 06:09:38;;;;;;;30.43;20.10;;;-0.40;99.90;;;;;;5033376;28;20650;-87
2023/02/16 06:12:04;;;;;;;54.00;21.70;;;-0.40;99.90;;;;;;5036204;28;20184;-86
2023/02/16 06:14:29;;;;;;;54.43;22.63;;;-0.50;99.90;;;;;;5032632;28;20247;-88
2023/02/16 06:16:56;;;;;;;36.00;21.20;;;-0.50;99.90;;;;;;5037467;28;20205;-86
2023/02/16 06:19:22;;;;;;;43.50;22.03;;;-0.50;99.90;;;;;;5036186;28;20181;-87
2023/02/16 06:21:47;;;;;;;42.17;23.07;;;-0.50;99.90;;;;;;5034509;28;20752;-85
2023/02/16 06:24:13;;;;;;;34.90;20.07;;;-0.30;99.90;;;;;;5034489;28;20264;-85
2023/02/16 06:26:40;;;;;;;35.23;22.47;;;-0.40;99.90;;;;;;5035698;28;20196;-85
2023/02/16 06:29:06;;;;;;;47.97;23.93;;;-0.40;99.90;;;;;;5034275;28;20201;-87
2023/02/16 06:31:32;;;;;;;44.10;22.80;;;-0.50;99.90;;;;;;5030182;28;20216;-87
2023/02/16 06:33:58;;;;;;;29.37;22.27;;;-0.50;99.90;;;;;;5032776;28;20231;-88
2023/02/16 06:36:24;;;;;;;28.40;20.77;;;-0.40;99.90;;;;;;5032730;28;20524;-86
2023/02/16 06:38:50;;;;;;;26.70;20.50;;;-0.40;99.90;;;;;;5036641;28;20185;-87
2023/02/16 06:41:31;;;;;;;31.50;21.83;;;-0.30;99.90;;;;;;5036331;28;20224;-88
2023/02/16 06:44:01;;;;;;;28.77;19.60;;;-0.40;99.90;;;;;;5030144;28;20236;-86
2023/02/16 06:46:27;;;;;;;25.50;18.17;;;-0.40;99.90;;;;;;5032792;28;20576;-87
2023/02/16 06:48:53;;;;;;;28.23;18.20;;;-0.10;99.90;;;;;;5035742;28;20185;-87
2023/02/16 06:51:19;;;;;;;34.90;20.73;;;-0.20;99.90;;;;;;5035810;28;20703;-85
2023/02/16 06:53:45;;;;;;;31.60;18.50;;;-0.30;99.90;;;;;;5034339;28;20197;-87
2023/02/16 06:56:11;;;;;;;37.87;20.47;;;-0.40;99.90;;;;;;5037580;28;20219;-86
2023/02/16 06:58:36;;;;;;;25.60;19.37;;;-0.50;99.90;;;;;;5037760;28;20299;-87
2023/02/16 07:01:02;;;;;;;26.17;20.17;;;-0.50;99.90;;;;;;5039184;28;20185;-88
2023/02/16 07:03:28;;;;;;;39.37;21.90;;;-0.40;99.90;;;;;;5047636;28;20251;-88
2023/02/16 07:05:53;;;;;;;47.27;20.70;;;-0.40;99.90;;;;;;5047328;28;20225;-90
2023/02/16 07:08:19;;;;;;;42.23;20.53;;;-0.40;99.90;;;;;;5044634;28;20193;-86
2023/02/16 07:10:47;;;;;;;45.57;21.73;;;-0.40;99.90;;;;;;5035446;28;20222;-87
2023/02/16 07:13:12;;;;;;;48.83;20.17;;;-0.30;99.90;;;;;;5031586;28;20212;-87
2023/02/16 07:15:39;;;;;;;87.27;23.60;;;-0.30;99.90;;;;;;5026825;28;20589;-87
2023/02/16 07:18:05;;;;;;;50.43;23.00;;;-0.40;99.90;;;;;;5035750;28;20213;-89
2023/02/16 07:20:30;;;;;;;25.33;19.70;;;-0.40;99.90;;;;;;5034588;28;25569;-87
2023/02/16 07:22:56;;;;;;;61.37;23.03;;;-0.30;99.90;;;;;;5028225;28;20204;-85
2023/02/16 07:25:24;;;;;;;81.90;23.93;;;-0.30;99.90;;;;;;5031445;28;20207;-86
2023/02/16 07:27:49;;;;;;;75.70;23.03;;;-0.30;99.90;;;;;;5031231;28;20577;-87
2023/02/16 07:30:15;;;;;;;43.10;21.50;;;-0.50;99.90;;;;;;5027796;28;20226;-87
2023/02/16 07:32:41;;;;;;;40.50;21.60;;;-0.40;99.90;;;;;;5028904;28;20212;-88
2023/02/16 07:35:07;;;;;;;39.70;23.33;;;-0.30;99.90;;;;;;5028598;28;20196;-87
2023/02/16 07:37:33;;;;;;;65.63;22.13;;;-0.30;99.90;;;;;;5028426;28;20538;-85
2023/02/16 07:39:59;;;;;;;43.90;23.07;;;-0.30;99.90;;;;;;5028940;28;20200;-87
2023/02/16 07:42:28;;;;;;;38.43;21.37;;;-0.30;99.90;;;;;;5046069;28;20257;-88
2023/02/16 07:44:54;;;;;;;39.23;20.13;;;-0.30;99.90;;;;;;5051304;28;20177;-89
2023/02/16 07:47:19;;;;;;;35.50;20.70;;;-0.10;99.90;;;;;;5053039;28;20207;-84
2023/02/16 07:49:45;;;;;;;39.83;20.07;;;-0.10;99.90;;;;;;5041732;28;20189;-86
2023/02/16 07:52:10;;;;;;;30.47;20.70;;;-0.10;99.90;;;;;;5038229;28;20189;-87
2023/02/16 07:54:36;;;;;;;38.43;21.97;;;-0.20;99.90;;;;;;5034256;28;20188;-86
2023/02/16 07:57:02;;;;;;;50.10;21.60;;;-0.20;99.90;;;;;;5033812;28;20209;-88
2023/02/16 07:59:28;;;;;;;39.93;22.83;;;-0.10;99.90;;;;;;5032930;28;20196;-86
2023/02/16 08:01:53;;;;;;;38.13;22.33;;;0.00;99.90;;;;;;5036172;28;20271;-87
2023/02/16 08:04:19;;;;;;;39.87;22.13;;;0.00;99.90;;;;;;5033258;28;20578;-86
2023/02/16 08:06:47;;;;;;;46.27;24.10;;;-0.10;99.90;;;;;;5033105;28;20448;-86
2023/02/16 08:09:14;;;;;;;40.63;24.57;;;0.10;99.90;;;;;;5030930;28;20250;-89
2023/02/16 08:11:40;;;;;;;42.93;24.97;;;-0.10;99.90;;;;;;5032442;28;20256;-88
2023/02/16 08:14:06;;;;;;;40.77;24.30;;;-0.10;99.90;;;;;;5027211;28;20216;-87
2023/02/16 08:16:31;;;;;;;46.10;24.20;;;0.20;99.90;;;;;;5030294;28;20734;-87
2023/02/16 08:18:59;;;;;;;36.93;23.80;;;0.20;99.90;;;;;;5035239;28;20532;-88
2023/02/16 08:21:28;;;;;;;39.90;24.07;;;0.30;99.90;;;;;;5030464;28;20558;-87
2023/02/16 08:23:59;;;;;;;33.40;22.47;;;0.50;99.90;;;;;;5026728;28;20213;-87
2023/02/16 08:26:28;;;;;;;28.57;20.70;;;0.70;99.90;;;;;;5027867;28;20559;-87
2023/02/16 08:28:56;;;;;;;34.93;24.37;;;0.80;99.90;;;;;;5028671;28;20203;-87
2023/02/16 08:31:24;;;;;;;32.10;23.33;;;0.70;99.90;;;;;;5027962;28;20201;-88
2023/02/16 08:33:52;;;;;;;34.23;23.47;;;0.80;99.90;;;;;;5028358;28;20204;-86
2023/02/16 08:36:18;;;;;;;37.80;24.83;;;0.60;99.90;;;;;;5033767;28;20235;-86
2023/02/16 08:38:44;;;;;;;43.90;26.27;;;0.60;99.90;;;;;;5031495;28;20339;-87
2023/02/16 08:41:09;;;;;;;31.93;24.40;;;0.60;99.90;;;;;;5042477;28;20189;-87
2023/02/16 08:43:35;;;;;;;36.33;26.67;;;0.80;99.90;;;;;;5043343;28;20204;-87
2023/02/16 08:46:01;;;;;;;32.17;24.13;;;0.70;99.90;;;;;;5042323;28;20184;-86
2023/02/16 08:48:27;;;;;;;28.23;22.43;;;0.90;99.90;;;;;;5031947;28;20189;-86
2023/02/16 08:50:53;;;;;;;43.10;24.13;;;1.10;99.90;;;;;;5023393;28;20178;-87
2023/02/16 08:53:24;;;;;;;29.93;24.43;;;1.00;99.90;;;;;;5024343;28;20684;-86
2023/02/16 08:55:55;;;;;;;33.90;23.63;;;1.00;99.90;;;;;;5024996;28;20216;-88
2023/02/16 08:58:21;;;;;;;34.23;24.57;;;1.00;99.90;;;;;;5023897;28;20201;-87
2023/02/16 09:00:48;;;;;;;35.90;27.03;;;1.10;99.90;;;;;;5023844;28;20521;-87
2023/02/16 09:03:15;;;;;;;34.83;26.47;;;1.10;99.90;;;;;;5024320;28;20209;-87
2023/02/16 09:05:41;;;;;;;35.53;26.67;;;1.20;99.90;;;;;;5022229;28;20211;-86
2023/02/16 09:08:06;;;;;;;33.43;26.17;;;1.30;99.90;;;;;;5023859;28;20249;-86
2023/02/16 09:10:32;;;;;;;34.37;26.17;;;1.20;99.90;;;;;;5037188;28;20248;-87
2023/02/16 09:12:58;;;;;;;35.80;27.30;;;1.30;99.90;;;;;;5042861;28;20185;-87
2023/02/16 09:15:23;;;;;;;32.53;26.50;;;1.40;99.90;;;;;;5040116;28;20173;-88
2023/02/16 09:17:49;;;;;;;35.50;26.60;;;1.40;99.90;;;;;;5041325;28;20212;-87
2023/02/16 09:20:15;;;;;;;33.57;26.27;;;1.30;99.90;;;;;;5041450;28;20195;-88
2023/02/16 09:22:43;;;;;;;35.47;26.83;;;1.60;99.90;;;;;;5040888;28;20204;-87
2023/02/16 09:25:10;;;;;;;28.97;25.77;;;1.50;99.90;;;;;;5041584;28;20204;-87
2023/02/16 09:27:36;;;;;;;31.30;26.10;;;1.70;99.90;;;;;;5044476;28;20172;-87
2023/02/16 09:30:02;;;;;;;29.80;25.17;;;1.90;99.90;;;;;;5045094;28;20204;-86
2023/02/16 09:32:29;;;;;;;32.43;25.10;;;1.90;99.90;;;;;;5044751;28;20207;-86
2023/02/16 09:34:55;;;;;;;30.70;25.73;;;1.90;99.90;;;;;;5044523;28;20250;-88
2023/02/16 09:37:21;;;;;;;28.90;25.30;;;1.90;99.90;;;;;;5042933;28;20196;-86
2023/02/16 09:39:47;;;;;;;35.60;26.40;;;1.80;99.90;;;;;;5042537;28;20185;-88
2023/02/16 09:42:38;;;;;;;29.07;25.97;;;2.00;99.90;;;;;;5044745;28;20180;-86
2023/02/16 09:45:10;;;;;;;30.83;25.30;;;2.20;99.90;;;;;;5037886;28;20178;-87
2023/02/16 09:47:40;;;;;;;29.73;24.63;;;2.40;99.90;;;;;;5025967;28;20166;-88
2023/02/16 09:50:12;;;;;;;29.23;24.67;;;2.50;99.90;;;;;;5024146;28;20209;-87
2023/02/16 09:52:39;;;;;;;32.47;25.90;;;2.50;99.90;;;;;;5024727;28;20213;-87
2023/02/16 09:55:07;;;;;;;29.43;24.00;;;2.50;99.90;;;;;;5022924;28;20212;-87
2023/02/16 09:57:40;;;;;;;31.33;23.60;;;2.90;99.90;;;;;;5029119;28;20211;-87
2023/02/16 10:00:27;;;;;;;29.37;25.27;;;3.10;99.90;;;;;;5041904;28;20487;-87
2023/02/16 10:03:18;;;;;;;30.33;24.20;;;3.20;99.90;;;;;;5031264;28;20213;-87
2023/02/16 10:05:46;;;;;;;30.37;24.43;;;3.30;99.90;;;;;;5043251;28;20204;-87
2023/02/16 10:08:36;;;;;;;23.97;21.43;;;3.50;99.90;;;;;;5043674;28;20203;-88
2023/02/16 10:11:47;;;;;;;25.80;22.40;;;3.70;99.90;;;;;;5042801;28;20207;-88
2023/02/16 10:14:50;;;;;;;26.40;22.47;;;4.10;99.90;;;;;;5023474;28;20671;-87
2023/02/16 10:17:39;;;;;;;26.80;23.10;;;4.40;99.90;;;;;;5003832;28;20255;-89
2023/02/16 10:20:27;;;;;;;25.60;22.70;;;4.50;99.90;;;;;;5021610;28;20162;-88
2023/02/16 10:23:19;;;;;;;24.77;22.07;;;4.70;99.90;;;;;;5022610;28;20220;-88
2023/02/16 10:25:58;;;;;;;24.50;21.90;;;4.90;99.90;;;;;;5040105;28;20181;-90
2023/02/16 10:28:45;;;;;;;26.90;23.23;;;5.20;99.90;;;;;;5046000;28;20179;-89
2023/02/16 10:31:36;;;;;;;25.23;22.50;;;5.50;99.90;;;;;;5042593;28;20165;-88
2023/02/16 10:34:16;;;;;;;22.40;20.00;;;5.80;98.60;;;;;;5042781;28;20203;-87
2023/02/16 10:37:29;;;;;;;30.83;21.87;;;6.00;96.30;;;;;;5040894;28;20276;-88
2023/02/16 10:40:23;;;;;;;24.37;21.77;;;6.10;97.70;;;;;;5030147;28;20607;-89
2023/02/16 10:43:03;;;;;;;24.33;20.87;;;6.50;96.40;;;;;;5042707;28;20259;-88
2023/02/16 10:45:46;;;;;;;22.23;19.90;;;6.90;93.30;;;;;;5040707;28;20187;-87
2023/02/16 10:48:12;;;;;;;23.03;20.30;;;7.00;90.30;;;;;;5041924;28;20177;-87
2023/02/16 10:50:40;;;;;;;31.50;27.93;;;7.30;89.70;;;;;;5042645;28;20212;-87
2023/02/16 10:53:16;;;;;;;24.07;20.97;;;7.60;88.60;;;;;;5041947;28;20197;-88
2023/02/16 10:55:41;;;;;;;22.60;20.20;;;7.80;90.20;;;;;;5041255;28;20175;-86
2023/02/16 10:58:19;;;;;;;22.33;19.77;;;7.80;87.60;;;;;;5041919;28;20204;-90
2023/02/16 11:01:01;;;;;;;24.27;21.00;;;7.80;89.80;;;;;;5042252;28;20179;-88
2023/02/16 11:03:32;;;;;;;22.93;20.03;;;8.20;87.60;;;;;;5041218;28;20212;-90
2023/02/16 11:06:14;;;;;;;21.17;19.00;;;8.90;83.80;;;;;;5041671;28;20212;-88
2023/02/16 11:08:58;;;;;;;23.80;21.40;;;9.30;82.10;;;;;;5031692;28;20186;-88
2023/02/16 11:11:26;;;;;;;21.40;19.23;;;9.30;81.10;;;;;;5021031;28;20189;-87
2023/02/16 11:14:18;;;;;;;23.60;19.93;;;9.30;82.50;;;;;;5031948;28;20276;-88
2023/02/16 11:16:44;;;;;;;22.23;20.03;;;9.80;81.90;;;;;;5034994;28;20764;-88
2023/02/16 11:19:24;;;;;;;21.53;19.20;;;9.70;79.60;;;;;;5034397;28;20223;-89
2023/02/16 11:21:55;;;;;;;20.37;18.37;;;9.60;80.70;;;;;;5020870;28;20224;-89
2023/02/16 11:24:28;;;;;;;21.63;19.47;;;9.40;80.80;;;;;;5020044;28;20185;-89
2023/02/16 11:27:02;;;;;;;20.27;18.33;;;9.00;80.70;;;;;;5019566;28;20256;-87
2023/02/16 11:29:28;;;;;;;21.83;19.63;;;9.00;83.70;;;;;;5021793;28;20181;-89
2023/02/16 11:31:55;;;;;;;21.67;19.50;;;9.30;81.20;;;;;;5020023;28;20231;-88
2023/02/16 11:34:45;;;;;;;19.40;17.60;;;9.60;80.10;;;;;;5039290;28;20773;-87
2023/02/16 11:37:23;;;;;;;20.27;18.37;;;10.10;76.70;;;;;;5024354;28;20207;-88
2023/02/16 11:39:52;;;;;;;19.73;17.73;;;10.40;77.60;;;;;;5021556;28;20201;-90
2023/02/16 11:42:59;;;;;;;24.03;19.73;;;10.10;75.90;;;;;;5037048;28;20217;-91
2023/02/16 11:45:31;;;;;;;20.07;18.00;;;9.60;79.50;;;;;;5051207;28;20208;-89
2023/02/16 11:48:01;;;;;;;20.77;18.57;;;10.20;77.00;;;;;;5035811;28;20654;-87
2023/02/16 11:50:33;;;;;;;21.20;18.03;;;10.50;75.10;;;;;;5033311;28;20694;-86
2023/02/16 11:53:11;;;;;;;22.20;17.53;;;10.70;74.00;;;;;;5020289;28;20285;-87
2023/02/16 11:55:40;;;;;;;19.30;17.40;;;10.50;76.90;;;;;;5020308;28;20208;-87
2023/02/16 11:58:26;;;;;;;18.73;16.93;;;10.40;74.70;;;;;;5020793;28;20209;-86
2023/02/16 12:01:22;;;;;;;22.23;17.70;;;10.20;75.60;;;;;;5022042;28;20597;-88
2023/02/16 12:04:03;;;;;;;16.80;15.20;;;10.60;77.50;;;;;;5032979;28;20234;-88
2023/02/16 12:06:33;;;;;;;18.03;16.33;;;11.40;71.80;;;;;;5052445;28;20181;-89
2023/02/16 12:08:58;;;;;;;17.40;15.60;;;11.80;69.60;;;;;;5053652;28;20171;-90
2023/02/16 12:11:34;;;;;;;16.67;14.63;;;11.70;68.60;;;;;;5041382;28;20197;-87
2023/02/16 12:14:06;;;;;;;16.77;15.07;;;11.60;67.80;;;;;;5038015;28;20909;-90
2023/02/16 12:16:31;;;;;;;16.43;14.80;;;11.40;69.60;;;;;;5036449;28;20212;-89
2023/02/16 12:18:57;;;;;;;18.00;16.07;;;11.30;69.40;;;;;;5027367;28;20236;-87
2023/02/16 12:21:31;;;;;;;16.00;14.50;;;11.60;68.90;;;;;;5017895;28;20187;-89
2023/02/16 12:24:19;;;;;;;16.77;15.07;;;11.70;67.70;;;;;;5018989;28;20256;-89
2023/02/16 12:27:17;;;;;;;15.30;13.70;;;11.50;68.90;;;;;;5020015;28;20669;-88
2023/02/16 12:30:10;;;;;;;14.50;13.10;;;11.60;66.60;;;;;;4997498;28;20735;-88
2023/02/16 12:33:05;;;;;;;15.50;13.57;;;11.70;67.10;;;;;;5019577;28;20204;-87
2023/02/16 12:36:03;;;;;;;14.83;13.33;;;11.30;69.90;;;;;;5029982;28;20184;-87
2023/02/16 12:39:10;;;;;;;15.00;13.50;;;11.30;70.40;;;;;;5040517;28;20230;-86
2023/02/16 12:41:54;;;;;;;14.53;13.13;;;11.10;70.80;;;;;;5033647;28;20195;-88
2023/02/16 12:44:41;;;;;;;15.20;13.27;;;11.60;66.20;;;;;;5040138;28;20183;-88
2023/02/16 12:47:14;;;;;;;13.73;12.50;;;11.70;66.50;;;;;;5039123;28;20195;-86
2023/02/16 12:49:51;;;;;;;14.87;13.37;;;11.80;66.90;;;;;;5020875;28;20177;-88
2023/02/16 12:52:36;;;;;;;15.10;13.60;;;12.10;65.00;;;;;;5026650;28;20204;-87
2023/02/16 12:55:17;;;;;;;14.80;13.33;;;12.80;63.30;;;;;;5039207;28;20563;-88
2023/02/16 12:57:52;;;;;;;15.80;12.60;;;13.20;60.30;;;;;;5040362;28;20212;-87
2023/02/16 13:00:20;;;;;;;13.80;12.43;;;13.60;59.80;;;;;;5038726;28;20165;-89
2023/02/16 13:02:52;;;;;;;14.23;12.83;;;13.80;60.30;;;;;;5037644;28;20304;-89
2023/02/16 13:05:27;;;;;;;13.87;12.30;;;13.90;59.00;;;;;;5039039;28;20181;-88
2023/02/16 13:08:00;;;;;;;13.97;12.63;;;13.60;60.70;;;;;;5023737;28;20184;-90
2023/02/16 13:10:45;;;;;;;13.83;12.40;;;13.60;59.00;;;;;;5018736;28;20185;-88
2023/02/16 13:13:19;;;;;;;13.53;12.23;;;13.40;60.00;;;;;;5020546;28;20202;-88
2023/02/16 13:16:16;;;;;;;13.33;12.03;;;13.60;58.70;;;;;;5025529;28;20177;-90
2023/02/16 13:18:45;;;;;;;13.33;12.00;;;14.20;57.20;;;;;;5024710;28;20673;-87
2023/02/16 13:21:38;;;;;;;13.00;11.80;;;13.60;57.60;;;;;;5022733;28;20210;-89
2023/02/16 13:24:34;;;;;;;12.43;11.23;;;13.60;58.30;;;;;;5030004;28;20205;-88
2023/02/16 13:27:00;;;;;;;12.33;10.90;;;13.80;55.40;;;;;;5029790;28;20194;-88
2023/02/16 13:29:59;;;;;;;12.33;11.10;;;13.90;57.20;;;;;;5029550;28;20312;-91
2023/02/16 13:32:47;;;;;;;12.93;11.27;;;13.70;57.70;;;;;;5003169;28;20240;-91
2023/02/16 13:35:34;;;;;;;11.87;10.67;;;14.30;54.20;;;;;;5027819;28;20191;-89
2023/02/16 13:38:16;;;;;;;13.33;10.30;;;14.40;53.00;;;;;;5030105;28;20271;-88
2023/02/16 13:40:48;;;;;;;12.67;11.37;;;14.20;52.70;;;;;;5044401;28;20262;-88
2023/02/16 13:43:17;;;;;;;11.37;10.23;;;14.20;53.30;;;;;;5037472;28;20295;-85
2023/02/16 13:45:46;;;;;;;12.87;10.20;;;14.00;54.00;;;;;;5032231;28;20193;-89
2023/02/16 13:48:36;;;;;;;11.23;10.10;;;13.70;54.90;;;;;;5041400;28;20200;-90